Kriti Rock — SVBJ2 — position and weather

sailwx.info

Track history (hours):
 
Tides and Currents Weather Stations Pressure Air Temp Water Temp Dewpoint Dewpoint Depression Visibility Wind Speed Wind Dir Waves Ship Positions

Kriti Rock

Last reported at 2017-Dec-15 16:05 UTC. Time now 2017-Dec-16 12:57 UTC.
Position N 37°59' E 024°38'.

Length 180 m; draft 8 m.

Type: Tanker. MMSI: 241130000.

Date/timePositionNaut miles runAvg speedWind from/ knotsBaromVisibWave heightAir tempDewpointWater temp
2017-Dec-15 16:05N 37°59' E 024°38'111.9
2017-Dec-15 16:00N 37°58' E 024°38'612.3
2017-Dec-15 15:30N 37°52' E 024°35'612.8
2017-Dec-15 15:00N 37°46' E 024°33'612.3
2017-Dec-15 14:30N 37°40' E 024°31'612.1
2017-Dec-15 14:00N 37°36' E 024°27'612.3
2017-Dec-15 13:30N 37°31' E 024°21'612.8
2017-Dec-15 13:00N 37°25' E 024°17'612.9
2017-Dec-15 12:30N 37°19' E 024°14'713.0
2017-Dec-15 12:00N 37°13' E 024°12'713.1
2017-Dec-15 11:30N 37°07' E 024°09'713.8
2017-Dec-15 11:00N 37°01' E 024°06'713.7
2017-Dec-15 10:30N 36°54' E 024°02'713.6
2017-Dec-15 10:00N 36°48' E 023°59'713.6
2017-Dec-15 09:30N 36°42' E 023°56'713.7
2017-Dec-15 09:00N 36°35' E 023°53'713.4
2017-Dec-15 08:30N 36°29' E 023°51'1013.4
2017-Dec-15 07:47N 36°20' E 023°46'413.5
2017-Dec-15 07:29N 36°16' E 023°44'  
2017-Dec-12 06:22N 34°51' E 024°59'1412.9
2017-Dec-12 05:19N 34°45' E 025°14'413.0
2017-Dec-12 05:00N 34°43' E 025°18'3913.4
2017-Dec-12 02:06N 34°24' E 025°60'114.2
2017-Dec-12 02:00N 34°24' E 026°01'  
Track history (hours):
 
Tides and Currents Weather Stations Pressure Air Temp Water Temp Dewpoint Dewpoint Depression Visibility Wind Speed Wind Dir Waves Ship Positions

Kriti Rock

Last reported at 2017-Dec-15 16:05 UTC. Time now 2017-Dec-16 12:57 UTC.
Position N 37°59' E 024°38'.

Length 180 m; draft 8 m.

Type: Tanker. MMSI: 241130000.

Date/timePositionNaut miles runAvg speedWind from/ knotsBaromVisibWave heightAir tempDewpointWater temp
2017-Dec-15 16:05N 37°59' E 024°38'111.9
2017-Dec-15 16:00N 37°58' E 024°38'612.3
2017-Dec-15 15:30N 37°52' E 024°35'612.8
2017-Dec-15 15:00N 37°46' E 024°33'612.3
2017-Dec-15 14:30N 37°40' E 024°31'612.1
2017-Dec-15 14:00N 37°36' E 024°27'612.3
2017-Dec-15 13:30N 37°31' E 024°21'612.8
2017-Dec-15 13:00N 37°25' E 024°17'612.9
2017-Dec-15 12:30N 37°19' E 024°14'713.0
2017-Dec-15 12:00N 37°13' E 024°12'713.1
2017-Dec-15 11:30N 37°07' E 024°09'713.8
2017-Dec-15 11:00N 37°01' E 024°06'713.7
2017-Dec-15 10:30N 36°54' E 024°02'713.6
2017-Dec-15 10:00N 36°48' E 023°59'713.6
2017-Dec-15 09:30N 36°42' E 023°56'713.7
2017-Dec-15 09:00N 36°35' E 023°53'713.4
2017-Dec-15 08:30N 36°29' E 023°51'1013.4
2017-Dec-15 07:47N 36°20' E 023°46'413.5
2017-Dec-15 07:29N 36°16' E 023°44'  
2017-Dec-12 06:22N 34°51' E 024°59'1412.9
2017-Dec-12 05:19N 34°45' E 025°14'413.0
2017-Dec-12 05:00N 34°43' E 025°18'3913.4
2017-Dec-12 02:06N 34°24' E 025°60'114.2
2017-Dec-12 02:00N 34°24' E 026°01'  

Dump ship's entire track history